createdAt,value
2023-04-02T00:01:19.815Z,3.70
2023-04-02T00:03:53.494Z,3.70
2023-04-02T00:06:34.968Z,3.60
2023-04-02T00:09:13.704Z,3.60
2023-04-02T00:11:43.977Z,3.80
2023-04-02T00:14:33.525Z,3.80
2023-04-02T00:17:02.293Z,3.70
2023-04-02T00:19:35.217Z,3.70
2023-04-02T00:22:02.803Z,3.60
2023-04-02T00:24:29.491Z,3.80
2023-04-02T00:26:56.243Z,3.70
2023-04-02T00:29:23.042Z,3.90
2023-04-02T00:31:54.344Z,3.80
2023-04-02T00:34:34.940Z,3.80
2023-04-02T00:37:02.054Z,3.90
2023-04-02T00:39:39.498Z,3.90
2023-04-02T00:42:06.687Z,3.80
2023-04-02T00:44:43.599Z,3.70
2023-04-02T00:47:22.566Z,3.60
2023-04-02T00:49:56.928Z,3.80
2023-04-02T00:52:27.589Z,3.90
2023-04-02T00:55:19.868Z,4.00
2023-04-02T00:57:48.591Z,4.10
2023-04-02T01:00:34.626Z,4.00
2023-04-02T01:03:16.495Z,4.00
2023-04-02T01:06:02.653Z,3.90
2023-04-02T01:09:14.526Z,4.00
2023-04-02T01:11:59.452Z,3.80
2023-04-02T01:14:44.126Z,3.80
2023-04-02T01:17:18.558Z,3.90
2023-04-02T01:20:00.822Z,4.00
2023-04-02T01:22:41.624Z,4.00
2023-04-02T01:25:13.450Z,3.90
2023-04-02T01:27:47.531Z,3.90
2023-04-02T01:30:15.892Z,3.90
2023-04-02T01:32:43.174Z,3.70
2023-04-02T01:35:10.398Z,3.70
2023-04-02T01:37:56.427Z,3.60
2023-04-02T01:41:13.582Z,3.50
2023-04-02T01:43:58.220Z,3.60
2023-04-02T01:46:31.894Z,3.70
2023-04-02T01:49:02.696Z,3.80
2023-04-02T01:51:35.304Z,3.90
2023-04-02T01:54:04.551Z,4.00
2023-04-02T01:56:31.472Z,3.90
2023-04-02T01:58:59.565Z,4.00
2023-04-02T02:01:32.637Z,4.10
2023-04-02T02:04:01.405Z,3.90
2023-04-02T02:06:28.387Z,4.00
2023-04-02T02:09:03.466Z,3.90
2023-04-02T02:11:32.349Z,3.80
2023-04-02T02:14:01.048Z,3.90
2023-04-02T02:16:31.777Z,3.80
2023-04-02T02:19:02.468Z,4.00
2023-04-02T02:21:39.853Z,3.90
2023-04-02T02:24:17.112Z,3.80
2023-04-02T02:26:47.855Z,3.70
2023-04-02T02:29:19.193Z,3.60
2023-04-02T02:31:52.844Z,3.60
2023-04-02T02:34:24.907Z,3.60
2023-04-02T02:37:02.126Z,3.90
2023-04-02T02:39:39.919Z,3.70
2023-04-02T02:42:38.042Z,3.80
2023-04-02T02:45:11.505Z,3.90
2023-04-02T02:47:41.978Z,3.80
2023-04-02T02:50:18.287Z,3.80
2023-04-02T02:52:50.923Z,4.00
2023-04-02T02:55:21.971Z,3.90
2023-04-02T02:58:10.320Z,3.70
2023-04-02T03:00:39.184Z,3.80
2023-04-02T03:03:10.671Z,3.70
2023-04-02T03:05:38.598Z,3.80
2023-04-02T03:08:10.430Z,3.80
2023-04-02T03:10:41.886Z,3.90
2023-04-02T03:13:21.820Z,3.90
2023-04-02T03:16:01.536Z,3.90
2023-04-02T03:18:37.530Z,3.90
2023-04-02T03:21:16.279Z,3.90
2023-04-02T03:24:01.289Z,3.90
2023-04-02T03:26:38.233Z,3.90
2023-04-02T03:29:27.854Z,4.00
2023-04-02T03:31:59.276Z,3.90
2023-04-02T03:34:32.969Z,3.70
2023-04-02T03:37:18.414Z,3.80
2023-04-02T03:39:51.245Z,3.80
2023-04-02T03:42:26.333Z,3.80
2023-04-02T03:45:05.476Z,3.80
2023-04-02T03:47:43.944Z,3.90
2023-04-02T03:50:33.607Z,3.90
2023-04-02T03:53:01.473Z,3.90
2023-04-02T03:55:32.195Z,4.00
2023-04-02T03:58:22.079Z,3.90
2023-04-02T04:01:18.759Z,4.10
2023-04-02T04:03:50.493Z,4.00
2023-04-02T04:06:24.829Z,4.10
2023-04-02T04:09:28.837Z,4.20
2023-04-02T04:12:09.601Z,4.20
2023-04-02T04:14:40.418Z,4.10
2023-04-02T04:17:34.870Z,4.10
2023-04-02T04:20:46.102Z,4.10
2023-04-02T04:23:32.583Z,4.00
2023-04-02T04:26:09.479Z,4.00
2023-04-02T04:29:05.740Z,4.00
2023-04-02T04:31:38.917Z,4.00
2023-04-02T04:34:16.028Z,4.00
2023-04-02T04:36:53.964Z,4.00
2023-04-02T04:39:30.605Z,4.00
2023-04-02T04:42:00.890Z,4.10
2023-04-02T04:44:49.279Z,4.10
2023-04-02T04:47:40.386Z,4.10
2023-04-02T04:50:28.030Z,4.00
2023-04-02T04:52:54.727Z,4.00
2023-04-02T04:55:27.016Z,4.10
2023-04-02T04:58:01.639Z,4.30
2023-04-02T05:00:58.385Z,4.30
2023-04-02T05:03:40.469Z,4.30
2023-04-02T05:06:17.579Z,4.30
2023-04-02T05:08:49.421Z,4.30
2023-04-02T05:11:28.084Z,4.30
2023-04-02T05:13:58.997Z,4.30
2023-04-02T05:16:46.045Z,4.20
2023-04-02T05:19:21.056Z,4.30
2023-04-02T05:22:06.228Z,4.30
2023-04-02T05:24:53.679Z,4.40
2023-04-02T05:27:52.569Z,4.30
2023-04-02T05:30:25.377Z,4.40
2023-04-02T05:33:05.163Z,3.30
2023-04-02T05:35:36.320Z,4.60
2023-04-02T05:38:04.961Z,4.60
2023-04-02T05:40:46.310Z,4.60
2023-04-02T05:43:18.245Z,4.60
2023-04-02T05:45:52.077Z,4.70
2023-04-02T05:48:29.703Z,4.70
2023-04-02T05:50:58.868Z,4.70
2023-04-02T05:53:30.560Z,4.90
2023-04-02T05:56:21.899Z,4.80
2023-04-02T05:58:54.370Z,4.90
2023-04-02T06:01:45.321Z,4.90
2023-04-02T06:04:21.086Z,4.80
2023-04-02T06:06:58.062Z,4.90
2023-04-02T06:09:44.181Z,4.90
2023-04-02T06:12:30.015Z,4.90
2023-04-02T06:14:56.922Z,4.90
2023-04-02T06:17:23.895Z,4.90
2023-04-02T06:19:53.404Z,5.10
2023-04-02T06:22:38.372Z,5.00
2023-04-02T06:25:18.141Z,5.00
2023-04-02T06:27:46.789Z,5.10
2023-04-02T06:30:35.361Z,5.20
2023-04-02T06:33:03.141Z,5.20
2023-04-02T06:35:30.376Z,5.20
2023-04-02T06:38:01.234Z,5.00
2023-04-02T06:40:40.561Z,5.10
2023-04-02T06:43:33.504Z,5.10
2023-04-02T06:46:04.887Z,5.20
2023-04-02T06:48:33.137Z,5.30
2023-04-02T06:51:09.424Z,5.40
2023-04-02T06:53:36.156Z,5.50
2023-04-02T06:56:38.193Z,5.40
2023-04-02T06:59:07.312Z,5.40
2023-04-02T07:01:38.294Z,5.40
2023-04-02T07:04:05.320Z,5.40
2023-04-02T07:06:31.967Z,5.40
2023-04-02T07:08:58.577Z,5.40
2023-04-02T07:11:26.213Z,5.40
2023-04-02T07:13:52.900Z,5.50
2023-04-02T07:16:22.268Z,5.60
2023-04-02T07:18:49.534Z,5.50
2023-04-02T07:21:16.168Z,5.70
2023-04-02T07:23:42.855Z,5.70
2023-04-02T07:26:14.858Z,5.60
2023-04-02T07:28:42.392Z,5.50
2023-04-02T07:31:20.171Z,5.60
2023-04-02T07:33:47.388Z,5.80
2023-04-02T07:36:17.336Z,5.90
2023-04-02T07:38:44.834Z,6.70
2023-04-02T07:41:11.981Z,7.00
2023-04-02T07:43:39.377Z,6.90
2023-04-02T07:46:07.037Z,6.70
2023-04-02T07:48:33.723Z,6.70
2023-04-02T07:51:03.208Z,7.30
2023-04-02T07:53:35.529Z,7.60
2023-04-02T07:56:03.593Z,7.50
2023-04-02T07:58:31.992Z,7.60
2023-04-02T08:00:59.940Z,7.80
2023-04-02T08:03:27.691Z,7.70
2023-04-02T08:05:56.882Z,7.40
2023-04-02T08:08:25.270Z,7.40
2023-04-02T08:10:51.963Z,7.30
2023-04-02T08:13:18.912Z,7.10
2023-04-02T08:15:45.732Z,7.20
2023-04-02T08:18:13.311Z,7.30
2023-04-02T08:20:39.947Z,7.40
2023-04-02T08:23:15.367Z,7.40
2023-04-02T08:25:42.090Z,7.50
2023-04-02T08:28:08.911Z,7.60
2023-04-02T08:30:36.430Z,7.70
2023-04-02T08:33:03.738Z,7.40
2023-04-02T08:35:30.736Z,7.00
2023-04-02T08:37:57.545Z,7.00
2023-04-02T08:40:39.551Z,6.70
2023-04-02T08:43:28.750Z,6.50
2023-04-02T08:46:09.615Z,6.50
2023-04-02T08:48:42.061Z,6.70
2023-04-02T08:51:23.594Z,6.90
2023-04-02T08:53:53.530Z,7.10
2023-04-02T08:56:27.774Z,7.30
2023-04-02T08:59:10.442Z,7.30
2023-04-02T09:01:57.388Z,8.70
2023-04-02T09:04:26.447Z,7.70
2023-04-02T09:06:55.760Z,7.60
2023-04-02T09:09:23.077Z,7.80
2023-04-02T09:11:56.758Z,8.10
2023-04-02T09:14:42.063Z,8.00
2023-04-02T09:17:19.438Z,8.00
2023-04-02T09:20:01.580Z,7.90
2023-04-02T09:22:31.686Z,7.90
2023-04-02T09:25:00.961Z,7.80
2023-04-02T09:27:30.975Z,7.60
2023-04-02T09:30:29.824Z,7.60
2023-04-02T09:33:07.508Z,7.50
2023-04-02T09:35:53.266Z,7.60
2023-04-02T09:38:23.172Z,7.70
2023-04-02T09:41:04.838Z,6.30
2023-04-02T09:43:32.494Z,7.80
2023-04-02T09:46:20.898Z,8.00
2023-04-02T09:48:54.153Z,7.90
2023-04-02T09:51:23.644Z,7.80
2023-04-02T09:54:06.147Z,7.80
2023-04-02T09:56:35.832Z,8.00
2023-04-02T09:59:15.690Z,8.00
2023-04-02T10:01:45.236Z,8.00
2023-04-02T10:04:48.440Z,7.70
2023-04-02T10:07:38.339Z,7.90
2023-04-02T10:10:28.804Z,8.10
2023-04-02T10:13:01.414Z,8.20
2023-04-02T10:15:40.546Z,8.30
2023-04-02T10:18:23.236Z,8.40
2023-04-02T10:20:52.422Z,8.40
2023-04-02T10:23:19.673Z,8.60
2023-04-02T10:25:59.455Z,8.70
2023-04-02T10:28:32.027Z,9.00
2023-04-02T10:31:25.467Z,8.90
2023-04-02T10:34:01.075Z,8.80
2023-04-02T10:36:50.433Z,8.60
2023-04-02T10:39:45.043Z,8.50
2023-04-02T10:42:39.511Z,8.50
2023-04-02T10:45:21.207Z,8.50
2023-04-02T10:48:05.812Z,8.30
2023-04-02T10:50:48.815Z,8.30
2023-04-02T10:53:21.274Z,8.30
2023-04-02T10:55:56.152Z,8.40
2023-04-02T10:58:28.478Z,8.50
2023-04-02T11:01:13.434Z,8.70
2023-04-02T11:03:45.613Z,8.90
2023-04-02T11:06:19.803Z,8.80
2023-04-02T11:08:49.741Z,8.70
2023-04-02T11:11:18.824Z,8.60
2023-04-02T11:14:03.663Z,8.70
2023-04-02T11:16:30.652Z,8.70
2023-04-02T11:19:22.594Z,8.60
2023-04-02T11:21:59.289Z,8.50
2023-04-02T11:24:32.998Z,8.70
2023-04-02T11:27:12.245Z,8.80
2023-04-02T11:29:38.900Z,8.80
2023-04-02T11:32:20.645Z,8.80
2023-04-02T11:34:53.729Z,8.50
2023-04-02T11:37:44.687Z,8.70
2023-04-02T11:40:11.636Z,8.90
2023-04-02T11:42:49.523Z,8.70
2023-04-02T11:45:52.944Z,8.70
2023-04-02T11:48:20.063Z,8.80
2023-04-02T11:50:47.219Z,8.90
2023-04-02T11:53:32.640Z,8.90
2023-04-02T11:56:18.009Z,9.00
2023-04-02T11:59:02.026Z,8.90
2023-04-02T12:01:57.031Z,8.80
2023-04-02T12:04:32.571Z,8.60
2023-04-02T12:07:46.610Z,8.70
2023-04-02T12:10:21.760Z,8.70
2023-04-02T12:12:48.914Z,8.60
2023-04-02T12:15:44.099Z,8.80
2023-04-02T12:18:23.190Z,9.00
2023-04-02T12:20:53.243Z,9.10
2023-04-02T12:23:24.298Z,9.00
2023-04-02T12:26:03.388Z,9.00
2023-04-02T12:28:31.269Z,9.10
2023-04-02T12:31:06.093Z,9.00
2023-04-02T12:33:40.900Z,9.30
2023-04-02T12:36:21.911Z,9.20
2023-04-02T12:38:58.157Z,8.80
2023-04-02T12:41:31.218Z,8.70
2023-04-02T12:44:11.523Z,8.70
2023-04-02T12:46:39.766Z,8.60
2023-04-02T12:49:25.533Z,8.70
2023-04-02T12:51:52.925Z,8.90
2023-04-02T12:54:20.964Z,8.80
2023-04-02T12:56:48.904Z,8.70
2023-04-02T12:59:34.707Z,8.60
2023-04-02T13:02:03.762Z,8.60
2023-04-02T13:04:30.607Z,8.60
2023-04-02T13:06:57.458Z,8.60
2023-04-02T13:09:35.144Z,8.60
2023-04-02T13:12:02.952Z,8.80
2023-04-02T13:14:30.562Z,9.00
2023-04-02T13:16:57.437Z,9.10
2023-04-02T13:19:26.038Z,9.10
2023-04-02T13:21:54.372Z,8.90
2023-04-02T13:24:23.681Z,8.80
2023-04-02T13:26:53.395Z,8.90
2023-04-02T13:29:38.101Z,9.00
2023-04-02T13:32:07.872Z,8.90
2023-04-02T13:34:34.489Z,8.90
2023-04-02T13:37:01.229Z,8.70
2023-04-02T13:39:30.108Z,8.70
2023-04-02T13:42:02.388Z,8.80
2023-04-02T13:44:34.199Z,8.70
2023-04-02T13:47:01.826Z,8.80
2023-04-02T13:49:28.853Z,8.70
2023-04-02T13:52:00.142Z,8.80
2023-04-02T13:54:43.110Z,8.80
2023-04-02T13:57:09.745Z,9.10
2023-04-02T13:59:36.418Z,9.00
2023-04-02T14:02:10.412Z,8.90
2023-04-02T14:04:44.693Z,9.10
2023-04-02T14:07:26.944Z,9.40
2023-04-02T14:10:21.989Z,9.70
2023-04-02T14:12:54.123Z,9.60
2023-04-02T14:15:42.041Z,9.50
2023-04-02T14:18:27.639Z,9.70
2023-04-02T14:21:07.045Z,9.70
2023-04-02T14:24:04.655Z,9.70
2023-04-02T14:26:41.726Z,9.50
2023-04-02T14:29:22.458Z,9.60
2023-04-02T14:32:14.327Z,9.70
2023-04-02T14:35:22.066Z,9.60
2023-04-02T14:38:07.990Z,9.90
2023-04-02T14:40:50.128Z,10.30
2023-04-02T14:43:19.560Z,10.30
2023-04-02T14:45:59.196Z,10.20
2023-04-02T14:48:48.798Z,10.20
2023-04-02T14:51:24.052Z,9.90
2023-04-02T14:54:11.106Z,9.80
2023-04-02T14:56:47.175Z,9.80
2023-04-02T14:59:21.886Z,9.40
2023-04-02T15:01:52.288Z,8.90
2023-04-02T15:04:27.142Z,9.10
2023-04-02T15:07:01.675Z,9.20
2023-04-02T15:10:06.071Z,9.20
2023-04-02T15:12:36.126Z,9.10
2023-04-02T15:15:39.011Z,9.00
2023-04-02T15:18:11.488Z,8.80
2023-04-02T15:21:10.700Z,8.60
2023-04-02T15:24:10.942Z,8.70
2023-04-02T15:27:24.039Z,8.60
2023-04-02T15:30:13.105Z,8.70
2023-04-02T15:32:42.341Z,8.30
2023-04-02T15:35:40.729Z,9.10
2023-04-02T15:38:34.755Z,9.00
2023-04-02T15:41:07.293Z,8.80
2023-04-02T15:43:40.083Z,8.60
2023-04-02T15:46:16.958Z,8.50
2023-04-02T15:48:54.338Z,8.30
2023-04-02T15:51:29.956Z,8.00
2023-04-02T15:54:06.593Z,8.00
2023-04-02T15:57:04.136Z,7.90
2023-04-02T15:59:36.642Z,7.90
2023-04-02T16:02:41.091Z,7.80
2023-04-02T16:05:23.001Z,7.80
2023-04-02T16:08:13.050Z,7.90
2023-04-02T16:10:42.931Z,7.90
2023-04-02T16:13:37.860Z,7.90
2023-04-02T16:16:09.220Z,8.10
2023-04-02T16:18:59.114Z,7.90
2023-04-02T16:21:32.496Z,7.70
2023-04-02T16:23:59.338Z,7.70
2023-04-02T16:26:40.681Z,7.70
2023-04-02T16:29:23.227Z,7.70
2023-04-02T16:32:05.122Z,7.60
2023-04-02T16:34:40.963Z,7.60
2023-04-02T16:37:13.502Z,7.60
2023-04-02T16:39:59.342Z,7.40
2023-04-02T16:42:31.779Z,7.40
2023-04-02T16:45:12.267Z,7.40
2023-04-02T16:48:08.709Z,7.50
2023-04-02T16:50:49.033Z,7.50
2023-04-02T16:53:41.355Z,7.40
2023-04-02T16:56:27.298Z,7.50
2023-04-02T16:59:12.579Z,7.40
2023-04-02T17:02:08.605Z,8.50
2023-04-02T17:05:11.808Z,7.20
2023-04-02T17:08:04.137Z,7.90
2023-04-02T17:10:46.348Z,7.30
2023-04-02T17:13:24.996Z,7.20
2023-04-02T17:16:26.686Z,7.20
2023-04-02T17:18:57.834Z,7.20
2023-04-02T17:21:26.456Z,7.00
2023-04-02T17:23:58.268Z,7.00
2023-04-02T17:26:29.081Z,7.10
2023-04-02T17:29:00.328Z,6.90
2023-04-02T17:31:33.819Z,6.90
2023-04-02T17:34:09.613Z,7.00
2023-04-02T17:36:38.993Z,7.00
2023-04-02T17:39:21.676Z,6.80
2023-04-02T17:41:55.426Z,6.80
2023-04-02T17:44:44.933Z,6.90
2023-04-02T17:47:23.073Z,6.80
2023-04-02T17:50:08.418Z,6.70
2023-04-02T17:52:56.663Z,6.70
2023-04-02T17:55:32.206Z,6.60
2023-04-02T17:58:27.897Z,6.50
2023-04-02T18:01:04.599Z,6.60
2023-04-02T18:03:36.506Z,6.80
2023-04-02T18:06:15.761Z,6.80
2023-04-02T18:08:54.658Z,6.70
2023-04-02T18:11:24.227Z,6.50
2023-04-02T18:14:37.775Z,6.50
2023-04-02T18:17:34.714Z,5.30
2023-04-02T18:20:08.110Z,6.30
2023-04-02T18:22:47.770Z,6.30
2023-04-02T18:25:38.565Z,6.40
2023-04-02T18:28:31.532Z,6.40
2023-04-02T18:31:05.977Z,6.70
2023-04-02T18:33:57.732Z,6.20
2023-04-02T18:37:16.067Z,6.20
2023-04-02T18:40:16.649Z,6.20
2023-04-02T18:42:48.929Z,6.00
2023-04-02T18:45:30.222Z,6.30
2023-04-02T18:48:02.748Z,6.20
2023-04-02T18:50:35.165Z,6.10
2023-04-02T18:53:32.509Z,6.00
2023-04-02T18:56:04.775Z,5.90
2023-04-02T18:58:41.071Z,5.90
2023-04-02T19:01:11.380Z,6.00
2023-04-02T19:03:41.325Z,5.70
2023-04-02T19:06:19.263Z,5.80
2023-04-02T19:08:51.092Z,5.80
2023-04-02T19:11:28.638Z,5.90
2023-04-02T19:13:58.961Z,5.80
2023-04-02T19:16:47.123Z,5.90
2023-04-02T19:19:19.080Z,5.80
2023-04-02T19:22:08.657Z,5.80
2023-04-02T19:25:03.245Z,5.70
2023-04-02T19:27:32.715Z,5.80
2023-04-02T19:30:24.188Z,5.80
2023-04-02T19:33:41.049Z,5.60
2023-04-02T19:36:20.869Z,5.60
2023-04-02T19:39:17.139Z,6.70
2023-04-02T19:41:48.204Z,5.70
2023-04-02T19:44:16.306Z,5.70
2023-04-02T19:46:43.516Z,5.60
2023-04-02T19:49:26.636Z,5.70
2023-04-02T19:51:53.567Z,5.70
2023-04-02T19:54:20.441Z,5.50
2023-04-02T19:56:47.426Z,5.40
2023-04-02T19:59:18.106Z,5.40
2023-04-02T20:01:45.119Z,5.30
2023-04-02T20:04:11.767Z,5.30
2023-04-02T20:06:38.459Z,5.30
2023-04-02T20:09:05.203Z,5.50
2023-04-02T20:11:31.843Z,5.60
2023-04-02T20:13:58.443Z,5.50
2023-04-02T20:16:25.268Z,5.50
2023-04-02T20:18:52.019Z,5.60
2023-04-02T20:21:18.955Z,5.50
2023-04-02T20:23:45.645Z,5.40
2023-04-02T20:26:12.737Z,5.50
2023-04-02T20:28:39.719Z,5.50
2023-04-02T20:31:12.411Z,5.40
2023-04-02T20:33:39.562Z,5.20
2023-04-02T20:36:12.603Z,5.20
2023-04-02T20:38:39.645Z,5.10
2023-04-02T20:41:07.594Z,5.10
2023-04-02T20:43:35.895Z,5.10
2023-04-02T20:46:05.523Z,5.30
2023-04-02T20:48:33.887Z,5.30
2023-04-02T20:51:02.052Z,5.20
2023-04-02T20:53:30.928Z,5.40
2023-04-02T20:56:06.640Z,5.40
2023-04-02T20:58:35.239Z,5.40
2023-04-02T21:01:15.468Z,5.20
2023-04-02T21:03:42.206Z,5.10
2023-04-02T21:06:19.914Z,5.20
2023-04-02T21:08:47.127Z,5.20
2023-04-02T21:11:14.498Z,5.30
2023-04-02T21:13:44.444Z,4.80
2023-04-02T21:16:20.399Z,5.10
2023-04-02T21:18:48.492Z,5.20
2023-04-02T21:21:15.595Z,5.20
2023-04-02T21:23:44.452Z,5.10
2023-04-02T21:26:16.280Z,5.20
2023-04-02T21:28:44.154Z,5.10
2023-04-02T21:31:15.796Z,5.00
2023-04-02T21:33:47.992Z,5.00
2023-04-02T21:36:20.803Z,5.00
2023-04-02T21:39:02.361Z,5.00
2023-04-02T21:41:40.282Z,5.00
2023-04-02T21:44:08.935Z,5.00
2023-04-02T21:46:38.534Z,5.00
2023-04-02T21:49:07.938Z,4.90
2023-04-02T21:51:37.039Z,4.80
2023-04-02T21:54:04.341Z,4.80
2023-04-02T21:56:36.639Z,4.70
2023-04-02T21:59:04.451Z,4.90
2023-04-02T22:01:34.239Z,4.80
2023-04-02T22:04:03.293Z,4.70
2023-04-02T22:06:32.513Z,4.70
2023-04-02T22:09:01.500Z,4.70
2023-04-02T22:11:41.913Z,4.60
2023-04-02T22:14:08.706Z,4.50
2023-04-02T22:16:36.328Z,4.50
2023-04-02T22:19:06.592Z,4.50
2023-04-02T22:21:34.035Z,4.50
2023-04-02T22:24:01.855Z,4.50
2023-04-02T22:26:29.404Z,4.50
2023-04-02T22:28:56.188Z,4.60
2023-04-02T22:31:25.828Z,4.50
2023-04-02T22:33:53.936Z,4.50
2023-04-02T22:36:22.253Z,4.40
2023-04-02T22:38:49.577Z,4.60
2023-04-02T22:41:22.419Z,4.60
2023-04-02T22:43:49.802Z,4.70
2023-04-02T22:46:17.899Z,4.50
2023-04-02T22:48:45.781Z,4.50
2023-04-02T22:51:14.802Z,4.50
2023-04-02T22:53:42.888Z,4.50
2023-04-02T22:56:11.014Z,4.60
2023-04-02T22:58:38.265Z,4.40
2023-04-02T23:01:19.627Z,4.30
2023-04-02T23:03:46.426Z,4.30
2023-04-02T23:06:15.586Z,4.30
2023-04-02T23:08:42.397Z,4.40
2023-04-02T23:11:18.132Z,4.40
2023-04-02T23:13:46.586Z,4.30
2023-04-02T23:16:14.691Z,4.30
2023-04-02T23:18:42.321Z,4.40
2023-04-02T23:21:09.858Z,4.40
2023-04-02T23:23:37.066Z,5.40
2023-04-02T23:26:07.977Z,4.50
2023-04-02T23:28:36.147Z,4.40
2023-04-02T23:31:04.596Z,4.50
2023-04-02T23:33:31.551Z,4.30
2023-04-02T23:35:58.597Z,4.20
2023-04-02T23:38:26.929Z,4.20
2023-04-02T23:40:53.926Z,4.30
2023-04-02T23:43:21.113Z,4.40
2023-04-02T23:45:49.305Z,4.20
2023-04-02T23:48:16.468Z,3.90
2023-04-02T23:50:45.105Z,4.00
2023-04-02T23:53:12.296Z,4.00
2023-04-02T23:55:39.164Z,4.00
2023-04-02T23:58:06.151Z,4.10
